Mansfield, WA (98830)

8:21 AM PDT on September 21, 2014 (GMT -0700)
RAWS DOUGLAS WA US | Change Station
CLOSE
Current Station
Personal Weather Station
Location: Waterville, WA
Elevation: 2529 ft
Nearby Weather Stations

Elev 2529 ft 47.62 °N, 119.90 °W | Updated 33 minutes ago

Clear
Clear
58 °F
Feels Like 58 °F
N
7
Wind Variable Wind from NW
Gusts 9.0 mph

Today
High -- | Low -- °F
--% Chance of Precip.
Yesterday
High -- | Low -- °F
Precip. -- in
6:44 AM 6:58 PM
Waning Crescent, 6% visible
Pressure 29.95 in
Visibility 10.0 miles
Clouds Clear
Dew Point 39 °F
Humidity 50%
Rainfall 0.00 in
Snow Depth 3 in , 0 in , 1 in
UV 0 out of 12
Pollen 3.20 out of 12
Air Quality Not available.
Flu Activity Not available.
METAR KEPH 211353Z AUTO 35006KT 10SM CLR 18/03 A2997 RMK AO2 SLP140 T01780028

More Conditions Fewer Conditions

Pressure 29.95 in
Visibility 10.0 miles
Clouds Clear
Dew Point 39 °F
Humidity 50%
Rainfall 0.00 in
Snow Depth 3 in , 0 in , 1 in
UV 0 out of 12
Pollen 3.20 out of 12
Air Quality Not available.
Flu Activity Not available.
METAR KEPH 211353Z AUTO 35006KT 10SM CLR 18/03 A2997 RMK AO2 SLP140 T01780028

More Conditions Fewer Conditions

10-Day Weather Forecast

Almanac

Astronomy

Sep. 21, 2014 Rise Set
Actual Time 6:44 AM PDT 6:58 PM PDT
Civil Twilight 6:13 AM PDT 7:29 PM PDT
Nautical Twilight 5:36 AM PDT 8:05 PM PDT
Astronomical Twilight 4:59 AM PDT 8:42 PM PDT
Moon 4:14 AM PDT 5:42 PM PDT
Length of Visible Light 13h 15m
Length of Day
12h 14m
Tomorrow will be 3m 26s shorter.
Waning Crescent, 6% of the Moon is Illuminated
Today
Waning Crescent
Sep 24
New
Oct 1
First Quarter
Oct 8
Full
Oct 15
Last Quarter

Today's Extremes

State Highs State Lows

Community

WunderPhotos

Upload Photos

1,755,166 photos uploaded!

Nearby

Snow Depth

Station Depth Elevation
Olallie Meadows 3 in 3700 ft
Stevens Pass 0 in 4070 ft
Surprise Lakes 0 in 4250 ft
Park Creek Ridge 0 in 4600 ft
Spruce Springs 1 in 5700 ft

Earthquake Activity

City Distance Mag. Time & Date
No recent earthquake activity has been reported nearby.
Minimum magnitude displayed is 2.5.

Coastal Water Temperatures

Place Temperature
No Stations Reporting

Nearby Weather Stations